createdAt,value
2022-08-09T00:00:11.472Z,54.07
2022-08-09T00:01:16.400Z,54.10
2022-08-09T00:02:13.400Z,54.12
2022-08-09T00:04:00.487Z,54.10
2022-08-09T00:04:33.956Z,54.24
2022-08-09T00:06:18.384Z,54.31
2022-08-09T00:06:19.384Z,54.22
2022-08-09T00:07:13.143Z,54.26
2022-08-09T00:08:31.315Z,54.30
2022-08-09T00:09:13.160Z,54.29
2022-08-09T00:10:11.066Z,54.36
2022-08-09T00:11:24.466Z,54.25
2022-08-09T00:12:22.538Z,54.23
2022-08-09T00:13:17.443Z,54.33
2022-08-09T00:14:11.065Z,54.29
2022-08-09T00:15:14.666Z,54.44
2022-08-09T00:16:12.821Z,54.33
2022-08-09T00:18:04.418Z,54.31
2022-08-09T00:18:13.167Z,54.43
2022-08-09T00:19:11.077Z,54.35
2022-08-09T00:20:12.190Z,54.41
2022-08-09T00:21:11.063Z,54.47
2022-08-09T00:22:11.358Z,54.46
2022-08-09T00:23:54.930Z,54.49
2022-08-09T00:24:13.227Z,54.67
2022-08-09T00:25:12.874Z,54.72
2022-08-09T00:26:11.392Z,54.66
2022-08-09T00:27:11.060Z,54.68
2022-08-09T00:28:11.062Z,54.73
2022-08-09T00:29:12.465Z,54.75
2022-08-09T00:30:24.680Z,54.68
2022-08-09T00:31:56.995Z,54.74
2022-08-09T00:32:13.068Z,54.85
2022-08-09T00:33:13.137Z,54.83
2022-08-09T00:34:11.089Z,54.93
2022-08-09T00:35:11.059Z,55.05
2022-08-09T00:36:11.066Z,55.07
2022-08-09T00:37:11.064Z,55.15
2022-08-09T00:38:11.099Z,55.10
2022-08-09T00:40:09.356Z,55.13
2022-08-09T00:40:17.404Z,55.16
2022-08-09T00:41:13.146Z,55.44
2022-08-09T00:44:11.478Z,55.23
2022-08-09T00:44:13.330Z,55.31
2022-08-09T00:44:25.637Z,55.33
2022-08-09T00:45:14.868Z,55.31
2022-08-09T00:46:11.071Z,55.46
2022-08-09T00:47:15.313Z,55.38
2022-08-09T00:48:15.278Z,55.40
2022-08-09T00:49:13.143Z,55.33
2022-08-09T00:50:14.753Z,55.39
2022-08-09T00:51:13.131Z,55.55
2022-08-09T00:52:15.905Z,55.47
2022-08-09T00:53:13.131Z,55.57
2022-08-09T00:54:11.066Z,55.84
2022-08-09T00:55:32.749Z,55.69
2022-08-09T00:56:13.219Z,55.71
2022-08-09T00:57:11.168Z,55.76
2022-08-09T00:58:14.528Z,55.77
2022-08-09T00:59:11.075Z,55.73
2022-08-09T01:00:21.460Z,55.75
2022-08-09T01:01:18.224Z,55.95
2022-08-09T01:02:11.083Z,55.91
2022-08-09T01:03:16.068Z,55.87
2022-08-09T01:04:19.068Z,55.99
2022-08-09T01:05:21.984Z,55.93
2022-08-09T01:06:18.316Z,55.92
2022-08-09T01:07:19.068Z,55.91
2022-08-09T01:08:26.945Z,55.97
2022-08-09T01:09:21.197Z,55.95
2022-08-09T01:10:22.069Z,55.95
2022-08-09T01:11:22.088Z,56.02
2022-08-09T01:12:19.069Z,55.96
2022-08-09T01:13:19.072Z,55.95
2022-08-09T01:14:19.082Z,56.04
2022-08-09T01:15:16.990Z,56.01
2022-08-09T01:16:11.066Z,56.20
2022-08-09T01:17:16.035Z,56.30
2022-08-09T01:18:14.212Z,56.32
2022-08-09T01:19:39.566Z,56.33
2022-08-09T01:20:18.250Z,56.46
2022-08-09T01:21:20.161Z,56.46
2022-08-09T01:22:19.070Z,56.43
2022-08-09T01:24:01.780Z,56.42
2022-08-09T01:24:21.081Z,56.56
2022-08-09T01:25:19.360Z,56.58
2022-08-09T01:26:22.062Z,56.64
2022-08-09T01:27:15.061Z,56.77
2022-08-09T01:28:11.366Z,56.80
2022-08-09T01:29:12.066Z,56.90
2022-08-09T01:30:35.322Z,56.86
2022-08-09T01:32:29.179Z,56.73
2022-08-09T01:32:31.482Z,56.78
2022-08-09T01:33:13.222Z,56.70
2022-08-09T01:34:12.063Z,56.91
2022-08-09T01:35:28.944Z,56.93
2022-08-09T01:36:14.293Z,57.05
2022-08-09T01:37:12.066Z,57.07
2022-08-09T01:38:15.573Z,57.04
2022-08-09T01:39:11.090Z,57.14
2022-08-09T01:40:11.074Z,57.18
2022-08-09T01:41:25.568Z,57.14
2022-08-09T01:42:13.342Z,57.25
2022-08-09T01:43:11.070Z,57.35
2022-08-09T01:44:11.074Z,57.32
2022-08-09T01:45:11.068Z,57.46
2022-08-09T01:46:11.064Z,57.37
2022-08-09T01:47:14.120Z,57.42
2022-08-09T01:48:11.077Z,57.35
2022-08-09T01:49:17.071Z,57.41
2022-08-09T01:50:11.067Z,57.35
2022-08-09T01:51:11.065Z,57.36
2022-08-09T01:52:14.572Z,57.41
2022-08-09T01:53:19.788Z,57.36
2022-08-09T01:54:13.236Z,57.45
2022-08-09T01:55:11.073Z,57.46
2022-08-09T01:56:11.070Z,57.55
2022-08-09T01:57:16.067Z,57.53
2022-08-09T01:58:11.070Z,57.53
2022-08-09T01:59:11.075Z,57.58
2022-08-09T02:00:35.622Z,57.53
2022-08-09T02:01:18.107Z,57.60
2022-08-09T02:02:13.153Z,57.71
2022-08-09T02:03:13.659Z,57.71
2022-08-09T02:04:11.071Z,57.68
2022-08-09T02:05:15.590Z,57.59
2022-08-09T02:06:13.344Z,57.59
2022-08-09T02:08:35.059Z,57.67
2022-08-09T02:08:39.996Z,57.72
2022-08-09T02:09:13.226Z,57.64
2022-08-09T02:10:19.072Z,57.68
2022-08-09T02:11:17.213Z,57.80
2022-08-09T02:12:11.072Z,57.81
2022-08-09T02:13:14.129Z,57.83
2022-08-09T02:14:11.073Z,57.88
2022-08-09T02:15:15.387Z,57.89
2022-08-09T02:16:13.077Z,57.91
2022-08-09T02:17:15.076Z,57.92
2022-08-09T02:18:13.128Z,58.14
2022-08-09T02:19:11.078Z,58.05
2022-08-09T02:20:11.073Z,57.99
2022-08-09T02:21:17.313Z,58.06
2022-08-09T02:22:19.054Z,58.15
2022-08-09T02:23:19.350Z,58.20
2022-08-09T02:24:26.045Z,58.17
2022-08-09T02:25:17.333Z,58.20
2022-08-09T02:26:26.671Z,58.20
2022-08-09T02:27:14.147Z,58.24
2022-08-09T02:28:19.065Z,58.28
2022-08-09T02:29:24.086Z,58.24
2022-08-09T02:30:11.060Z,58.22
2022-08-09T02:31:19.061Z,58.27
2022-08-09T02:32:11.058Z,58.28
2022-08-09T02:33:14.541Z,58.39
2022-08-09T02:34:40.161Z,58.37
2022-08-09T02:35:19.293Z,58.40
2022-08-09T02:36:16.215Z,58.52
2022-08-09T02:37:14.066Z,58.48
2022-08-09T02:38:11.061Z,58.45
2022-08-09T02:39:33.197Z,58.56
2022-08-09T02:40:15.140Z,58.63
2022-08-09T02:41:15.148Z,58.58
2022-08-09T02:42:16.059Z,58.77
2022-08-09T02:43:11.059Z,58.83
2022-08-09T02:44:29.003Z,58.89
2022-08-09T02:45:17.142Z,58.85
2022-08-09T02:46:13.058Z,58.94
2022-08-09T02:47:14.066Z,58.88
2022-08-09T02:48:30.770Z,59.02
2022-08-09T02:49:17.158Z,59.22
2022-08-09T02:50:17.059Z,59.29
2022-08-09T02:51:12.059Z,59.37
2022-08-09T02:52:14.066Z,59.33
2022-08-09T02:53:25.777Z,59.38
2022-08-09T02:54:16.112Z,59.45
2022-08-09T02:55:20.102Z,59.43
2022-08-09T02:56:13.269Z,59.43
2022-08-09T02:57:13.887Z,59.45
2022-08-09T02:58:35.934Z,59.51
2022-08-09T02:59:25.782Z,59.62
2022-08-09T03:00:25.374Z,59.57
2022-08-09T03:01:21.605Z,59.53
2022-08-09T03:02:16.704Z,59.56
2022-08-09T03:03:11.061Z,59.61
2022-08-09T03:04:17.941Z,59.67
2022-08-09T03:05:16.659Z,59.63
2022-08-09T03:06:11.067Z,59.68
2022-08-09T03:07:14.397Z,59.63
2022-08-09T03:08:11.064Z,59.65
2022-08-09T03:09:11.066Z,59.68
2022-08-09T03:10:11.062Z,59.70
2022-08-09T03:11:13.176Z,59.84
2022-08-09T03:12:13.517Z,59.77
2022-08-09T03:13:11.070Z,60.00
2022-08-09T03:14:11.065Z,59.93
2022-08-09T03:15:11.067Z,59.84
2022-08-09T03:16:11.074Z,59.84
2022-08-09T03:17:20.507Z,59.94
2022-08-09T03:18:13.161Z,59.97
2022-08-09T03:19:14.586Z,59.90
2022-08-09T03:20:13.160Z,59.84
2022-08-09T03:21:11.065Z,59.93
2022-08-09T03:22:12.432Z,60.01
2022-08-09T03:23:24.706Z,59.94
2022-08-09T03:24:13.142Z,60.00
2022-08-09T03:25:25.870Z,59.93
2022-08-09T03:26:13.145Z,60.13
2022-08-09T03:27:11.059Z,60.12
2022-08-09T03:28:11.082Z,60.21
2022-08-09T03:29:22.538Z,60.21
2022-08-09T03:30:13.216Z,60.33
2022-08-09T03:31:21.238Z,60.19
2022-08-09T03:32:13.151Z,60.28
2022-08-09T03:33:16.918Z,60.29
2022-08-09T03:34:14.101Z,60.29
2022-08-09T03:35:24.277Z,60.33
2022-08-09T03:36:16.873Z,60.46
2022-08-09T03:37:55.393Z,60.50
2022-08-09T03:38:16.011Z,60.39
2022-08-09T03:39:13.163Z,60.49
2022-08-09T03:40:13.289Z,60.60
2022-08-09T03:41:15.604Z,60.58
2022-08-09T03:42:13.150Z,60.58
2022-08-09T03:43:13.169Z,60.54
2022-08-09T03:44:12.030Z,60.54
2022-08-09T03:45:11.060Z,60.57
2022-08-09T03:46:20.031Z,60.66
2022-08-09T03:47:13.156Z,60.65
2022-08-09T03:48:11.062Z,60.71
2022-08-09T03:49:11.066Z,60.66
2022-08-09T03:50:11.069Z,60.69
2022-08-09T03:51:57.222Z,60.72
2022-08-09T03:52:13.340Z,60.67
2022-08-09T03:53:11.072Z,60.79
2022-08-09T03:54:11.452Z,60.82
2022-08-09T03:55:11.059Z,60.83
2022-08-09T03:56:11.063Z,60.92
2022-08-09T03:57:17.959Z,60.87
2022-08-09T03:58:16.883Z,60.88
2022-08-09T03:59:20.956Z,60.81
2022-08-09T04:00:13.131Z,60.85
2022-08-09T04:01:11.123Z,60.76
2022-08-09T04:02:11.065Z,60.81
2022-08-09T04:03:11.825Z,60.89
2022-08-09T04:04:14.690Z,60.87
2022-08-09T04:05:17.275Z,60.82
2022-08-09T04:06:13.214Z,60.78
2022-08-09T04:07:11.061Z,60.69
2022-08-09T04:08:11.069Z,60.81
2022-08-09T04:09:11.066Z,60.74
2022-08-09T04:10:13.139Z,60.73
2022-08-09T04:11:11.117Z,60.87
2022-08-09T04:12:40.534Z,60.90
2022-08-09T04:13:18.646Z,60.89
2022-08-09T04:14:53.068Z,60.86
2022-08-09T04:15:29.496Z,60.76
2022-08-09T04:16:19.633Z,60.76
2022-08-09T04:17:13.159Z,60.81
2022-08-09T04:18:16.688Z,60.88
2022-08-09T04:19:15.945Z,61.00
2022-08-09T04:20:13.335Z,60.91
2022-08-09T04:21:11.075Z,60.80
2022-08-09T04:22:11.974Z,60.85
2022-08-09T04:23:17.165Z,61.02
2022-08-09T04:24:13.140Z,61.11
2022-08-09T04:25:11.061Z,61.05
2022-08-09T04:26:11.059Z,61.06
2022-08-09T04:27:11.059Z,61.01
2022-08-09T04:28:12.501Z,60.94
2022-08-09T04:29:15.451Z,60.95
2022-08-09T04:30:11.063Z,61.04
2022-08-09T04:31:13.046Z,61.07
2022-08-09T04:32:11.059Z,60.99
2022-08-09T04:33:11.062Z,60.91
2022-08-09T04:34:11.061Z,60.96
2022-08-09T04:35:11.058Z,61.03
2022-08-09T04:36:11.063Z,61.06
2022-08-09T04:37:11.062Z,61.06
2022-08-09T04:38:13.164Z,60.98
2022-08-09T04:39:12.173Z,60.93
2022-08-09T04:40:11.068Z,60.83
2022-08-09T04:41:11.885Z,60.89
2022-08-09T04:42:11.061Z,60.83
2022-08-09T04:43:11.070Z,60.95
2022-08-09T04:44:11.400Z,60.96
2022-08-09T04:45:11.058Z,60.95
2022-08-09T04:46:19.345Z,60.93
2022-08-09T04:47:13.173Z,60.94
2022-08-09T04:48:11.062Z,60.96
2022-08-09T04:49:11.062Z,60.96
2022-08-09T04:50:11.065Z,61.03
2022-08-09T04:51:11.059Z,61.07
2022-08-09T04:52:11.063Z,61.10
2022-08-09T04:53:11.632Z,61.12
2022-08-09T04:54:11.063Z,61.17
2022-08-09T04:55:11.877Z,61.18
2022-08-09T04:56:11.064Z,61.26
2022-08-09T04:57:12.321Z,61.41
2022-08-09T04:58:11.064Z,61.44
2022-08-09T04:59:15.382Z,61.32
2022-08-09T05:00:11.071Z,61.45
2022-08-09T05:01:16.384Z,61.43
2022-08-09T05:02:13.262Z,61.41
2022-08-09T05:03:30.588Z,61.47
2022-08-09T05:04:13.176Z,61.52
2022-08-09T05:05:11.061Z,61.48
2022-08-09T05:06:12.079Z,61.45
2022-08-09T05:07:19.407Z,61.35
2022-08-09T05:08:14.030Z,61.35
2022-08-09T05:09:11.062Z,61.31
2022-08-09T05:10:11.069Z,61.42
2022-08-09T05:11:11.067Z,61.47
2022-08-09T05:12:12.571Z,61.44
2022-08-09T05:13:11.066Z,61.39
2022-08-09T05:14:11.079Z,61.45
2022-08-09T05:15:11.368Z,61.40
2022-08-09T05:16:11.066Z,61.41
2022-08-09T05:18:39.658Z,61.36
2022-08-09T05:18:42.926Z,61.47
2022-08-09T05:19:13.211Z,61.52
2022-08-09T05:20:11.066Z,61.49
2022-08-09T05:21:22.848Z,61.59
2022-08-09T05:22:33.493Z,61.48
2022-08-09T05:23:58.182Z,61.38
2022-08-09T05:24:13.143Z,61.33
2022-08-09T05:25:11.062Z,61.27
2022-08-09T05:26:11.053Z,61.47
2022-08-09T05:27:13.399Z,61.46
2022-08-09T05:28:11.065Z,61.49
2022-08-09T05:29:17.328Z,61.48
2022-08-09T05:30:13.135Z,61.51
2022-08-09T05:31:11.064Z,61.53
2022-08-09T05:32:11.060Z,61.48
2022-08-09T05:33:11.055Z,61.47
2022-08-09T05:34:16.944Z,61.52
2022-08-09T05:35:13.136Z,61.53
2022-08-09T05:36:11.121Z,61.51
2022-08-09T05:37:11.440Z,61.56
2022-08-09T05:38:11.067Z,61.60
2022-08-09T05:39:13.287Z,61.65
2022-08-09T05:40:11.114Z,61.64
2022-08-09T05:41:12.632Z,61.61
2022-08-09T05:42:18.023Z,61.54
2022-08-09T05:43:13.174Z,61.54
2022-08-09T05:44:11.056Z,61.57
2022-08-09T05:45:14.350Z,61.57
2022-08-09T05:46:11.064Z,61.57
2022-08-09T05:47:11.059Z,61.58
2022-08-09T05:48:11.074Z,61.70
2022-08-09T05:49:19.088Z,61.60
2022-08-09T05:50:26.004Z,61.60
2022-08-09T05:51:30.173Z,61.55
2022-08-09T05:52:13.153Z,61.54
2022-08-09T05:53:11.753Z,61.56
2022-08-09T05:54:13.324Z,61.74
2022-08-09T05:55:20.536Z,61.72
2022-08-09T05:56:16.151Z,61.67
2022-08-09T05:58:18.418Z,61.69
2022-08-09T05:59:13.364Z,61.56
2022-08-09T06:00:11.170Z,61.58
2022-08-09T06:01:11.187Z,61.50
2022-08-09T06:02:16.991Z,61.46
2022-08-09T06:03:19.565Z,61.37
2022-08-09T06:04:13.684Z,61.44
2022-08-09T06:05:11.132Z,61.42
2022-08-09T06:06:11.133Z,61.45
2022-08-09T06:07:11.141Z,61.47
2022-08-09T06:08:13.419Z,61.40
2022-08-09T06:09:23.202Z,61.33
2022-08-09T06:10:15.734Z,61.42
2022-08-09T06:11:16.225Z,61.36
2022-08-09T06:12:13.466Z,61.31
2022-08-09T06:13:12.027Z,61.25
2022-08-09T06:14:13.578Z,61.20
2022-08-09T06:15:11.181Z,61.19
2022-08-09T06:16:11.136Z,61.13
2022-08-09T06:17:11.141Z,61.14
2022-08-09T06:18:11.335Z,61.12
2022-08-09T06:19:11.138Z,61.07
2022-08-09T06:20:11.101Z,61.08
2022-08-09T06:21:11.176Z,61.04
2022-08-09T06:22:15.251Z,61.08
2022-08-09T06:23:12.021Z,60.97
2022-08-09T06:24:11.128Z,60.98
2022-08-09T06:25:12.326Z,60.88
2022-08-09T06:26:13.685Z,60.85
2022-08-09T06:27:11.132Z,60.75
2022-08-09T06:28:11.137Z,60.69
2022-08-09T06:29:14.945Z,60.70
2022-08-09T06:30:14.005Z,60.66
2022-08-09T06:31:11.136Z,60.62
2022-08-09T06:32:52.888Z,60.57
2022-08-09T06:33:41.178Z,60.62
2022-08-09T06:34:13.565Z,60.62
2022-08-09T06:35:11.131Z,60.48
2022-08-09T06:36:13.669Z,60.42
2022-08-09T06:37:11.138Z,60.48
2022-08-09T06:38:11.162Z,60.50
2022-08-09T06:39:12.327Z,60.50
2022-08-09T06:40:21.676Z,60.47
2022-08-09T06:41:19.206Z,60.41
2022-08-09T06:42:13.451Z,60.36
2022-08-09T06:43:11.458Z,60.51
2022-08-09T06:44:11.128Z,60.38
2022-08-09T06:46:04.463Z,60.36
2022-08-09T06:46:40.054Z,60.36
2022-08-09T06:47:13.314Z,60.36
2022-08-09T06:48:11.102Z,60.23
2022-08-09T06:49:15.956Z,60.17
2022-08-09T06:50:13.783Z,60.13
2022-08-09T06:51:11.127Z,60.03
2022-08-09T06:52:12.053Z,60.01
2022-08-09T06:53:11.134Z,59.86
2022-08-09T06:54:14.650Z,59.88
2022-08-09T06:55:12.974Z,59.81
2022-08-09T06:56:11.141Z,59.80
2022-08-09T06:57:11.243Z,59.79
2022-08-09T06:58:28.473Z,59.74
2022-08-09T07:00:49.541Z,59.59
2022-08-09T07:00:51.245Z,59.61
2022-08-09T07:01:13.556Z,59.66
2022-08-09T07:02:11.185Z,59.50
2022-08-09T07:03:13.529Z,59.37
2022-08-09T07:04:11.135Z,59.29
2022-08-09T07:05:13.592Z,59.37
2022-08-09T07:06:11.188Z,59.38
2022-08-09T07:07:11.867Z,59.26
2022-08-09T07:08:11.117Z,59.25
2022-08-09T07:09:14.360Z,59.19
2022-08-09T07:10:29.365Z,59.27
2022-08-09T07:11:23.360Z,59.16
2022-08-09T07:12:17.907Z,59.10
2022-08-09T07:13:27.634Z,59.00
2022-08-09T07:14:13.592Z,58.95
2022-08-09T07:16:34.790Z,58.91
2022-08-09T07:16:41.057Z,59.02
2022-08-09T07:17:13.465Z,58.97
2022-08-09T07:18:11.181Z,58.84
2022-08-09T07:19:11.120Z,58.72
2022-08-09T07:20:11.142Z,58.72
2022-08-09T07:21:11.248Z,58.61
2022-08-09T07:22:11.671Z,58.54
2022-08-09T07:23:18.910Z,58.46
2022-08-09T07:24:13.653Z,58.37
2022-08-09T07:25:11.181Z,58.27
2022-08-09T07:26:11.174Z,58.16
2022-08-09T07:27:26.970Z,58.13
2022-08-09T09:44:15.634Z,43.55
2022-08-09T09:45:14.117Z,43.28
2022-08-09T09:46:41.734Z,42.66
2022-08-09T09:47:13.318Z,42.31
2022-08-09T09:48:11.065Z,42.17
2022-08-09T09:49:13.059Z,42.05
2022-08-09T09:50:16.838Z,42.17
2022-08-09T09:51:25.869Z,42.00
2022-08-09T09:52:33.447Z,41.75
2022-08-09T09:53:17.348Z,41.63
2022-08-09T09:54:20.390Z,41.62
2022-08-09T09:55:28.407Z,41.58
2022-08-09T09:56:31.146Z,41.79
2022-08-09T09:58:01.004Z,41.76
2022-08-09T09:58:18.903Z,41.71
2022-08-09T09:59:13.302Z,41.70
2022-08-09T10:00:19.068Z,41.25
2022-08-09T10:01:36.758Z,41.02
2022-08-09T10:02:13.288Z,40.75
2022-08-09T10:03:11.697Z,40.74
2022-08-09T10:04:22.902Z,40.50
2022-08-09T10:05:13.146Z,40.19
2022-08-09T10:06:12.457Z,40.09
2022-08-09T10:07:19.062Z,39.94
2022-08-09T10:08:28.012Z,39.95
2022-08-09T10:09:21.878Z,39.74
2022-08-09T10:10:13.716Z,39.29
2022-08-09T10:11:59.570Z,39.27
2022-08-09T10:12:28.667Z,39.38
2022-08-09T10:13:13.292Z,39.40
2022-08-09T10:14:27.463Z,39.33
2022-08-09T10:15:17.708Z,39.06
2022-08-09T10:16:56.979Z,39.08
2022-08-09T10:17:40.101Z,39.04
2022-08-09T10:18:15.126Z,39.01
2022-08-09T10:19:11.070Z,38.80
2022-08-09T10:20:27.316Z,38.70
2022-08-09T10:21:14.086Z,38.73
2022-08-09T10:22:11.069Z,38.76
2022-08-09T10:23:20.169Z,38.50
2022-08-09T10:24:16.023Z,38.24
2022-08-09T10:25:14.735Z,38.07
2022-08-09T10:26:11.200Z,38.08
2022-08-09T10:27:17.467Z,37.64
2022-08-09T10:28:13.172Z,37.49
2022-08-09T10:29:22.659Z,37.36
2022-08-09T10:31:27.902Z,37.04
2022-08-09T10:32:38.206Z,36.86
2022-08-09T10:34:07.710Z,36.89
2022-08-09T10:34:32.344Z,37.00
2022-08-09T10:35:13.410Z,36.67
2022-08-09T10:36:12.272Z,36.74
2022-08-09T10:37:13.803Z,36.62
2022-08-09T10:38:33.787Z,36.70
2022-08-09T10:39:15.989Z,36.71
2022-08-09T10:40:35.138Z,36.43
2022-08-09T10:41:13.119Z,36.26
2022-08-09T10:42:11.059Z,36.20
2022-08-09T10:43:11.070Z,36.43
2022-08-09T10:44:11.073Z,36.45
2022-08-09T10:45:12.310Z,36.47
2022-08-09T10:46:24.837Z,36.67
2022-08-09T10:48:13.245Z,36.48
2022-08-09T10:48:30.311Z,36.28
2022-08-09T10:49:23.302Z,36.40
2022-08-09T10:50:30.793Z,36.28
2022-08-09T10:51:29.869Z,35.94
2022-08-09T10:52:21.272Z,35.99
2022-08-09T10:53:19.068Z,36.21
2022-08-09T10:54:12.513Z,36.20
2022-08-09T10:55:19.067Z,35.90
2022-08-09T10:56:15.073Z,35.75
2022-08-09T10:57:15.157Z,35.59
2022-08-09T10:58:17.253Z,35.93
2022-08-09T10:59:21.075Z,35.89
2022-08-09T11:00:21.067Z,35.94
2022-08-09T11:03:11.527Z,35.60
2022-08-09T11:03:13.914Z,35.88
2022-08-09T11:03:51.422Z,35.69
2022-08-09T11:04:27.864Z,35.76
2022-08-09T11:05:25.221Z,35.61
2022-08-09T11:06:22.856Z,35.51
2022-08-09T11:07:19.071Z,35.52
2022-08-09T11:08:19.081Z,35.55
2022-08-09T11:09:15.996Z,35.30
2022-08-09T11:10:11.068Z,35.57
2022-08-09T11:11:11.071Z,35.43
2022-08-09T11:12:14.069Z,35.20
2022-08-09T11:13:49.854Z,35.19
2022-08-09T11:14:28.046Z,35.16
2022-08-09T11:15:23.906Z,35.08
2022-08-09T11:16:33.574Z,35.11
2022-08-09T11:17:21.307Z,35.13
2022-08-09T11:18:11.076Z,34.95
2022-08-09T11:19:11.538Z,34.94
2022-08-09T11:20:23.013Z,34.73
2022-08-09T11:21:13.182Z,34.69
2022-08-09T11:22:21.500Z,34.80
2022-08-09T11:23:13.208Z,34.72
2022-08-09T11:24:11.058Z,34.81
2022-08-09T11:25:16.058Z,34.66
2022-08-09T11:26:19.058Z,34.68
2022-08-09T11:27:25.455Z,34.48
2022-08-09T11:28:27.750Z,34.57
2022-08-09T11:29:17.063Z,34.38
2022-08-09T11:30:32.476Z,34.08
2022-08-09T11:31:33.815Z,34.28
2022-08-09T11:32:13.200Z,34.25
2022-08-09T11:33:23.061Z,34.47
2022-08-09T11:34:16.063Z,34.51
2022-08-09T11:35:16.061Z,34.67
2022-08-09T11:36:11.060Z,34.71
2022-08-09T11:37:18.130Z,34.92
2022-08-09T11:38:22.302Z,35.14
2022-08-09T11:39:13.125Z,35.21
2022-08-09T11:40:11.063Z,35.41
2022-08-09T11:41:21.065Z,35.47
2022-08-09T11:42:14.971Z,35.31
2022-08-09T11:43:14.066Z,35.12
2022-08-09T11:44:11.065Z,35.33
2022-08-09T11:45:19.063Z,35.04
2022-08-09T11:46:11.060Z,34.96
2022-08-09T11:47:14.498Z,34.79
2022-08-09T11:48:26.095Z,34.64
2022-08-09T11:49:17.058Z,34.60
2022-08-09T11:50:53.222Z,34.49
2022-08-09T11:52:48.963Z,34.51
2022-08-09T11:53:02.535Z,34.13
2022-08-09T11:54:01.832Z,34.13
2022-08-09T11:54:27.950Z,34.22
2022-08-09T11:55:34.667Z,34.49
2022-08-09T11:56:21.337Z,34.57
2022-08-09T11:57:28.310Z,34.68
2022-08-09T11:58:32.666Z,34.81
2022-08-09T11:59:13.069Z,34.94
2022-08-09T12:00:16.855Z,35.11
2022-08-09T12:01:15.211Z,35.10
2022-08-09T12:02:36.903Z,35.16
2022-08-09T12:03:56.113Z,35.52
2022-08-09T12:04:23.577Z,35.43
2022-08-09T12:05:17.450Z,35.11
2022-08-09T12:06:26.683Z,35.06
2022-08-09T12:07:14.231Z,34.74
2022-08-09T12:08:12.402Z,34.76
2022-08-09T12:09:19.280Z,34.43
2022-08-09T12:10:32.060Z,34.47
2022-08-09T12:11:16.216Z,34.17
2022-08-09T12:12:20.026Z,33.87
2022-08-09T12:14:07.823Z,33.60
2022-08-09T12:14:41.099Z,33.62
2022-08-09T12:15:48.478Z,33.53
2022-08-09T12:16:37.550Z,33.39
2022-08-09T12:17:27.877Z,33.24
2022-08-09T12:18:30.164Z,33.38
2022-08-09T12:19:13.177Z,33.18
2022-08-09T12:20:22.465Z,33.65
2022-08-09T12:21:28.520Z,33.63
2022-08-09T12:22:13.176Z,33.66
2022-08-09T12:23:11.059Z,33.60
2022-08-09T12:24:11.060Z,33.51
2022-08-09T12:25:17.064Z,33.54
2022-08-09T12:26:11.070Z,33.19
2022-08-09T12:28:59.903Z,32.91
2022-08-09T12:29:00.216Z,33.06
2022-08-09T12:29:29.635Z,32.89
2022-08-09T12:30:39.131Z,32.62
2022-08-09T12:31:58.028Z,32.71
2022-08-09T12:32:13.138Z,32.60
2022-08-09T12:33:11.058Z,32.71
2022-08-09T12:34:11.062Z,32.71
2022-08-09T12:35:13.312Z,32.67
2022-08-09T12:36:27.680Z,32.74
2022-08-09T12:37:23.765Z,33.17
2022-08-09T12:38:29.435Z,33.11
2022-08-09T12:39:17.336Z,33.23
2022-08-09T12:40:11.062Z,32.90
2022-08-09T12:41:11.060Z,32.66
2022-08-09T12:42:16.245Z,32.54
2022-08-09T12:43:11.064Z,32.64
2022-08-09T12:44:12.963Z,32.59
2022-08-09T12:45:34.266Z,32.32
2022-08-09T12:46:13.186Z,32.43
2022-08-09T12:47:11.062Z,32.19
2022-08-09T12:48:28.015Z,32.16
2022-08-09T12:49:13.146Z,32.04
2022-08-09T12:50:15.062Z,32.26
2022-08-09T12:51:11.061Z,32.07
2022-08-09T12:52:11.066Z,32.01
2022-08-09T12:53:23.802Z,31.90
2022-08-09T12:54:13.121Z,32.00
2022-08-09T12:56:14.121Z,32.13
2022-08-09T12:56:39.669Z,32.31
2022-08-09T12:57:13.074Z,32.35
2022-08-09T12:58:27.314Z,32.36
2022-08-09T12:59:13.902Z,32.42
2022-08-09T13:00:25.209Z,32.52
2022-08-09T13:01:19.083Z,32.22
2022-08-09T13:02:11.075Z,32.20
2022-08-09T13:03:20.608Z,32.29
2022-08-09T13:04:36.609Z,32.47
2022-08-09T13:05:13.223Z,32.34
2022-08-09T13:06:19.643Z,32.41
2022-08-09T13:07:19.933Z,32.37
2022-08-09T13:08:21.200Z,32.33
2022-08-09T13:09:17.150Z,32.32
2022-08-09T13:10:11.068Z,32.33
2022-08-09T13:11:23.273Z,32.24
2022-08-09T13:12:13.185Z,32.11
2022-08-09T13:13:13.220Z,32.12
2022-08-09T13:14:41.457Z,32.00
2022-08-09T13:15:13.204Z,31.88
2022-08-09T13:16:11.084Z,31.82
2022-08-09T13:17:16.012Z,31.91
2022-08-09T13:18:17.410Z,31.77
2022-08-09T13:19:13.209Z,31.77
2022-08-09T13:20:16.369Z,31.51
2022-08-09T13:22:33.350Z,31.41
2022-08-09T13:23:00.687Z,31.34
2022-08-09T13:24:17.397Z,31.24
2022-08-09T13:24:44.903Z,31.27
2022-08-09T13:25:14.368Z,31.33
2022-08-09T13:26:11.059Z,31.20
2022-08-09T13:27:19.072Z,31.20
2022-08-09T13:28:11.062Z,31.14
2022-08-09T13:29:17.347Z,31.37
2022-08-09T13:30:49.324Z,31.20
2022-08-09T13:32:17.050Z,31.11
2022-08-09T13:32:19.577Z,31.09
2022-08-09T13:33:17.131Z,30.89
2022-08-09T13:34:11.058Z,30.71
2022-08-09T13:35:11.680Z,30.54
2022-08-09T13:36:38.269Z,30.55
2022-08-09T13:37:13.195Z,30.48
2022-08-09T13:38:17.454Z,30.38
2022-08-09T13:41:18.947Z,30.29
2022-08-09T13:41:54.739Z,30.20
2022-08-09T13:41:55.414Z,30.27
2022-08-09T13:42:13.276Z,30.35
2022-08-09T13:43:15.555Z,30.40
2022-08-09T13:44:13.472Z,30.40
2022-08-09T13:45:12.410Z,30.77
2022-08-09T13:47:14.635Z,30.84
2022-08-09T13:47:33.097Z,30.86
2022-08-09T13:48:14.424Z,30.85
2022-08-09T13:49:18.340Z,30.90
2022-08-09T13:50:18.310Z,30.89
2022-08-09T13:51:13.207Z,30.79
2022-08-09T13:52:11.065Z,30.82
2022-08-09T13:53:13.299Z,30.94
2022-08-09T13:54:13.515Z,30.83
2022-08-09T13:55:13.698Z,30.78
2022-08-09T13:56:12.117Z,30.67
2022-08-09T13:57:14.426Z,30.57
2022-08-09T13:58:13.203Z,30.68
2022-08-09T13:59:11.078Z,30.80
2022-08-09T14:00:15.528Z,30.74
2022-08-09T14:01:13.487Z,30.69
2022-08-09T14:02:13.295Z,30.50
2022-08-09T14:04:02.712Z,30.54
2022-08-09T14:04:13.274Z,30.52
2022-08-09T14:05:12.278Z,30.54
2022-08-09T14:06:25.658Z,30.50
2022-08-09T14:07:13.172Z,30.71
2022-08-09T14:08:11.069Z,30.56
2022-08-09T14:09:11.069Z,30.55
2022-08-09T14:10:17.302Z,30.58
2022-08-09T14:11:16.098Z,30.61
2022-08-09T14:12:15.482Z,30.75
2022-08-09T14:13:12.145Z,30.59
2022-08-09T14:14:22.412Z,30.58
2022-08-09T14:16:06.932Z,30.61
2022-08-09T14:16:13.705Z,30.50
2022-08-09T14:17:12.539Z,30.31
2022-08-09T14:18:19.154Z,30.39
2022-08-09T14:19:13.100Z,30.20
2022-08-09T14:20:11.069Z,30.11
2022-08-09T14:21:11.072Z,29.82
2022-08-09T14:22:11.069Z,29.87
2022-08-09T14:23:11.054Z,29.85
2022-08-09T14:24:18.706Z,29.77
2022-08-09T14:25:13.203Z,29.64
2022-08-09T14:26:11.063Z,29.59
2022-08-09T14:27:19.756Z,29.59
2022-08-09T14:28:13.179Z,29.49
2022-08-09T14:29:25.764Z,29.49
2022-08-09T14:30:36.746Z,29.59
2022-08-09T14:31:13.195Z,29.63
2022-08-09T14:32:13.387Z,29.54
2022-08-09T14:33:13.191Z,29.60
2022-08-09T14:34:13.133Z,29.58
2022-08-09T14:35:11.060Z,29.44
2022-08-09T14:36:19.769Z,29.36
2022-08-09T14:37:13.257Z,29.35
2022-08-09T14:38:11.091Z,29.37
2022-08-09T14:39:11.160Z,29.43
2022-08-09T14:40:11.127Z,29.43
2022-08-09T14:41:24.109Z,29.44
2022-08-09T14:42:13.195Z,29.58
2022-08-09T14:43:15.957Z,29.65
2022-08-09T14:44:13.207Z,29.60
2022-08-09T14:46:57.369Z,29.61
2022-08-09T14:46:59.033Z,29.74
2022-08-09T14:47:41.239Z,29.72
2022-08-09T14:48:13.267Z,29.73
2022-08-09T14:49:11.061Z,29.68
2022-08-09T14:50:11.109Z,29.68
2022-08-09T14:51:11.067Z,29.66
2022-08-09T14:52:11.066Z,29.90
2022-08-09T14:53:12.230Z,29.82
2022-08-09T14:54:11.068Z,29.84
2022-08-09T14:55:11.064Z,29.85
2022-08-09T14:56:13.297Z,29.87
2022-08-09T14:57:11.068Z,29.90
2022-08-09T14:58:11.073Z,29.86
2022-08-09T14:59:14.299Z,30.02
2022-08-09T15:00:11.070Z,30.03
2022-08-09T15:01:11.151Z,30.08
2022-08-09T15:02:11.067Z,30.21
2022-08-09T15:03:11.077Z,30.32
2022-08-09T15:04:11.068Z,30.29
2022-08-09T15:05:11.071Z,30.53
2022-08-09T15:06:11.070Z,30.61
2022-08-09T15:07:11.069Z,30.92
2022-08-09T15:08:11.065Z,30.81
2022-08-09T15:09:13.219Z,30.77
2022-08-09T15:10:14.031Z,30.59